sensor_id;sensor_type;location;lat;lon;timestamp;P1;durP1;ratioP1;P2;durP2;ratioP2
24555;SDS011;12725;49.440;10.954;2023-04-29T00:00:55;1.35;;;0.98;;
24555;SDS011;12725;49.440;10.954;2023-04-29T00:04:56;1.27;;;0.75;;
24555;SDS011;12725;49.440;10.954;2023-04-29T00:08:57;0.40;;;0.40;;
24555;SDS011;12725;49.440;10.954;2023-04-29T00:12:57;0.70;;;0.70;;
24555;SDS011;12725;49.440;10.954;2023-04-29T00:16:57;0.40;;;0.40;;
24555;SDS011;12725;49.440;10.954;2023-04-29T00:20:58;0.50;;;0.50;;
24555;SDS011;12725;49.440;10.954;2023-04-29T00:24:59;1.90;;;1.37;;
24555;SDS011;12725;49.440;10.954;2023-04-29T00:28:59;0.60;;;0.60;;
24555;SDS011;12725;49.440;10.954;2023-04-29T00:33:02;0.50;;;0.50;;
24555;SDS011;12725;49.440;10.954;2023-04-29T00:37:03;0.40;;;0.40;;
24555;SDS011;12725;49.440;10.954;2023-04-29T00:41:03;0.57;;;0.57;;
24555;SDS011;12725;49.440;10.954;2023-04-29T00:45:03;0.40;;;0.40;;
24555;SDS011;12725;49.440;10.954;2023-04-29T00:49:05;2.33;;;1.42;;
24555;SDS011;12725;49.440;10.954;2023-04-29T00:53:05;0.67;;;0.63;;
24555;SDS011;12725;49.440;10.954;2023-04-29T00:57:05;0.50;;;0.50;;
24555;SDS011;12725;49.440;10.954;2023-04-29T01:01:06;0.82;;;0.82;;
24555;SDS011;12725;49.440;10.954;2023-04-29T01:05:07;0.52;;;0.52;;
24555;SDS011;12725;49.440;10.954;2023-04-29T01:13:48;0.80;;;0.80;;
24555;SDS011;12725;49.440;10.954;2023-04-29T01:18:02;0.40;;;0.40;;
24555;SDS011;12725;49.440;10.954;2023-04-29T01:22:04;2.28;;;1.05;;
24555;SDS011;12725;49.440;10.954;2023-04-29T01:26:04;0.70;;;0.70;;
24555;SDS011;12725;49.440;10.954;2023-04-29T01:30:16;0.40;;;0.40;;
24555;SDS011;12725;49.440;10.954;2023-04-29T01:34:29;0.88;;;0.88;;
24555;SDS011;12725;49.440;10.954;2023-04-29T01:38:38;0.70;;;0.70;;
24555;SDS011;12725;49.440;10.954;2023-04-29T01:46:59;0.50;;;0.50;;
24555;SDS011;12725;49.440;10.954;2023-04-29T01:51:00;0.40;;;0.40;;
24555;SDS011;12725;49.440;10.954;2023-04-29T01:55:01;1.00;;;1.00;;
24555;SDS011;12725;49.440;10.954;2023-04-29T01:59:01;1.07;;;0.90;;
24555;SDS011;12725;49.440;10.954;2023-04-29T02:03:01;3.53;;;0.68;;
24555;SDS011;12725;49.440;10.954;2023-04-29T02:07:01;0.43;;;0.43;;
24555;SDS011;12725;49.440;10.954;2023-04-29T02:11:03;0.68;;;0.68;;
24555;SDS011;12725;49.440;10.954;2023-04-29T02:15:04;0.50;;;0.50;;
24555;SDS011;12725;49.440;10.954;2023-04-29T02:19:05;0.47;;;0.47;;
24555;SDS011;12725;49.440;10.954;2023-04-29T02:23:06;0.50;;;0.50;;
24555;SDS011;12725;49.440;10.954;2023-04-29T02:27:06;0.43;;;0.43;;
24555;SDS011;12725;49.440;10.954;2023-04-29T02:31:06;0.50;;;0.50;;
24555;SDS011;12725;49.440;10.954;2023-04-29T02:35:07;0.50;;;0.50;;
24555;SDS011;12725;49.440;10.954;2023-04-29T02:39:08;0.60;;;0.60;;
24555;SDS011;12725;49.440;10.954;2023-04-29T02:43:08;0.70;;;0.60;;
24555;SDS011;12725;49.440;10.954;2023-04-29T02:47:08;1.13;;;1.02;;
24555;SDS011;12725;49.440;10.954;2023-04-29T02:51:09;0.37;;;0.37;;
24555;SDS011;12725;49.440;10.954;2023-04-29T02:55:09;0.50;;;0.50;;
24555;SDS011;12725;49.440;10.954;2023-04-29T02:59:10;0.50;;;0.50;;
24555;SDS011;12725;49.440;10.954;2023-04-29T03:03:10;0.50;;;0.50;;
24555;SDS011;12725;49.440;10.954;2023-04-29T03:07:10;0.40;;;0.40;;
24555;SDS011;12725;49.440;10.954;2023-04-29T03:11:11;0.80;;;0.80;;
24555;SDS011;12725;49.440;10.954;2023-04-29T03:15:11;1.27;;;1.17;;
24555;SDS011;12725;49.440;10.954;2023-04-29T03:19:12;0.55;;;0.55;;
24555;SDS011;12725;49.440;10.954;2023-04-29T03:23:13;0.68;;;0.60;;
24555;SDS011;12725;49.440;10.954;2023-04-29T03:27:13;1.00;;;1.00;;
24555;SDS011;12725;49.440;10.954;2023-04-29T03:31:13;0.60;;;0.60;;
24555;SDS011;12725;49.440;10.954;2023-04-29T03:35:15;0.82;;;0.82;;
24555;SDS011;12725;49.440;10.954;2023-04-29T03:39:16;0.47;;;0.47;;
24555;SDS011;12725;49.440;10.954;2023-04-29T03:43:17;0.85;;;0.85;;
24555;SDS011;12725;49.440;10.954;2023-04-29T03:47:17;0.47;;;0.47;;
24555;SDS011;12725;49.440;10.954;2023-04-29T03:51:17;0.60;;;0.60;;
24555;SDS011;12725;49.440;10.954;2023-04-29T03:55:18;1.38;;;1.27;;
24555;SDS011;12725;49.440;10.954;2023-04-29T03:59:18;0.50;;;0.50;;
24555;SDS011;12725;49.440;10.954;2023-04-29T04:03:19;0.50;;;0.50;;
24555;SDS011;12725;49.440;10.954;2023-04-29T04:07:19;0.88;;;0.85;;
24555;SDS011;12725;49.440;10.954;2023-04-29T04:11:20;2.50;;;1.48;;
24555;SDS011;12725;49.440;10.954;2023-04-29T04:15:20;1.33;;;0.98;;
24555;SDS011;12725;49.440;10.954;2023-04-29T04:19:21;0.88;;;0.88;;
24555;SDS011;12725;49.440;10.954;2023-04-29T04:23:22;1.35;;;0.88;;
24555;SDS011;12725;49.440;10.954;2023-04-29T04:27:23;1.00;;;0.93;;
24555;SDS011;12725;49.440;10.954;2023-04-29T04:31:23;0.73;;;0.73;;
24555;SDS011;12725;49.440;10.954;2023-04-29T04:35:24;0.65;;;0.65;;
24555;SDS011;12725;49.440;10.954;2023-04-29T04:39:24;0.80;;;0.80;;
24555;SDS011;12725;49.440;10.954;2023-04-29T04:43:25;0.73;;;0.73;;
24555;SDS011;12725;49.440;10.954;2023-04-29T04:47:25;1.42;;;1.05;;
24555;SDS011;12725;49.440;10.954;2023-04-29T04:51:26;1.17;;;1.07;;
24555;SDS011;12725;49.440;10.954;2023-04-29T04:55:27;1.35;;;1.25;;
24555;SDS011;12725;49.440;10.954;2023-04-29T04:59:28;1.95;;;1.02;;
24555;SDS011;12725;49.440;10.954;2023-04-29T05:03:28;0.93;;;0.93;;
24555;SDS011;12725;49.440;10.954;2023-04-29T05:07:29;0.60;;;0.60;;
24555;SDS011;12725;49.440;10.954;2023-04-29T05:11:29;1.87;;;1.27;;
24555;SDS011;12725;49.440;10.954;2023-04-29T05:15:30;2.97;;;1.13;;
24555;SDS011;12725;49.440;10.954;2023-04-29T05:19:30;3.63;;;1.00;;
24555;SDS011;12725;49.440;10.954;2023-04-29T05:23:31;1.17;;;1.08;;
24555;SDS011;12725;49.440;10.954;2023-04-29T05:27:31;0.90;;;0.90;;
24555;SDS011;12725;49.440;10.954;2023-04-29T05:31:32;1.40;;;1.30;;
24555;SDS011;12725;49.440;10.954;2023-04-29T05:35:32;1.30;;;1.00;;
24555;SDS011;12725;49.440;10.954;2023-04-29T05:39:35;1.27;;;1.17;;
24555;SDS011;12725;49.440;10.954;2023-04-29T05:43:37;0.95;;;0.90;;
24555;SDS011;12725;49.440;10.954;2023-04-29T05:47:37;2.65;;;1.27;;
24555;SDS011;12725;49.440;10.954;2023-04-29T05:51:37;0.75;;;0.68;;
24555;SDS011;12725;49.440;10.954;2023-04-29T05:55:38;1.50;;;1.40;;
24555;SDS011;12725;49.440;10.954;2023-04-29T05:59:39;2.03;;;1.20;;
24555;SDS011;12725;49.440;10.954;2023-04-29T06:03:39;1.00;;;1.00;;
24555;SDS011;12725;49.440;10.954;2023-04-29T06:07:40;1.23;;;1.10;;
24555;SDS011;12725;49.440;10.954;2023-04-29T06:11:41;0.95;;;0.88;;
24555;SDS011;12725;49.440;10.954;2023-04-29T06:15:43;1.42;;;1.08;;
24555;SDS011;12725;49.440;10.954;2023-04-29T06:19:43;3.20;;;1.83;;
24555;SDS011;12725;49.440;10.954;2023-04-29T06:23:44;1.70;;;1.60;;
24555;SDS011;12725;49.440;10.954;2023-04-29T06:27:45;1.33;;;1.23;;
24555;SDS011;12725;49.440;10.954;2023-04-29T06:31:45;1.33;;;1.17;;
24555;SDS011;12725;49.440;10.954;2023-04-29T06:35:45;0.80;;;0.80;;
24555;SDS011;12725;49.440;10.954;2023-04-29T06:39:46;0.80;;;0.70;;
24555;SDS011;12725;49.440;10.954;2023-04-29T06:43:48;0.60;;;0.60;;
24555;SDS011;12725;49.440;10.954;2023-04-29T06:47:48;0.70;;;0.70;;
24555;SDS011;12725;49.440;10.954;2023-04-29T06:51:49;1.38;;;1.08;;
24555;SDS011;12725;49.440;10.954;2023-04-29T06:55:49;1.23;;;1.20;;
24555;SDS011;12725;49.440;10.954;2023-04-29T06:59:50;1.65;;;1.55;;
24555;SDS011;12725;49.440;10.954;2023-04-29T07:03:50;1.05;;;0.82;;
24555;SDS011;12725;49.440;10.954;2023-04-29T07:07:51;1.13;;;1.13;;
24555;SDS011;12725;49.440;10.954;2023-04-29T07:11:52;1.55;;;1.42;;
24555;SDS011;12725;49.440;10.954;2023-04-29T07:15:52;1.25;;;0.60;;
24555;SDS011;12725;49.440;10.954;2023-04-29T07:19:53;0.82;;;0.82;;
24555;SDS011;12725;49.440;10.954;2023-04-29T07:23:53;1.23;;;0.70;;
24555;SDS011;12725;49.440;10.954;2023-04-29T07:27:54;1.02;;;1.00;;
24555;SDS011;12725;49.440;10.954;2023-04-29T07:32:00;1.92;;;1.15;;
24555;SDS011;12725;49.440;10.954;2023-04-29T07:36:03;3.50;;;1.60;;
24555;SDS011;12725;49.440;10.954;2023-04-29T07:40:05;1.55;;;1.45;;
24555;SDS011;12725;49.440;10.954;2023-04-29T07:44:06;1.90;;;1.13;;
24555;SDS011;12725;49.440;10.954;2023-04-29T07:48:08;4.97;;;1.73;;
24555;SDS011;12725;49.440;10.954;2023-04-29T07:52:08;1.30;;;1.20;;
24555;SDS011;12725;49.440;10.954;2023-04-29T07:56:09;1.05;;;0.98;;
24555;SDS011;12725;49.440;10.954;2023-04-29T08:00:10;1.60;;;1.10;;
24555;SDS011;12725;49.440;10.954;2023-04-29T08:04:11;1.90;;;1.45;;
24555;SDS011;12725;49.440;10.954;2023-04-29T08:08:11;2.03;;;1.73;;
24555;SDS011;12725;49.440;10.954;2023-04-29T08:12:11;3.47;;;2.17;;
24555;SDS011;12725;49.440;10.954;2023-04-29T08:16:12;3.03;;;2.33;;
24555;SDS011;12725;49.440;10.954;2023-04-29T08:20:12;2.25;;;1.42;;
24555;SDS011;12725;49.440;10.954;2023-04-29T08:24:14;3.25;;;1.98;;
24555;SDS011;12725;49.440;10.954;2023-04-29T08:28:14;3.95;;;2.53;;
24555;SDS011;12725;49.440;10.954;2023-04-29T08:32:14;2.15;;;1.95;;
24555;SDS011;12725;49.440;10.954;2023-04-29T08:36:15;4.83;;;2.27;;
24555;SDS011;12725;49.440;10.954;2023-04-29T08:40:15;1.43;;;1.30;;
24555;SDS011;12725;49.440;10.954;2023-04-29T08:44:16;1.67;;;1.42;;
24555;SDS011;12725;49.440;10.954;2023-04-29T08:48:17;2.22;;;0.90;;
24555;SDS011;12725;49.440;10.954;2023-04-29T08:52:18;3.50;;;2.00;;
24555;SDS011;12725;49.440;10.954;2023-04-29T08:56:18;1.63;;;1.35;;
24555;SDS011;12725;49.440;10.954;2023-04-29T09:00:19;2.00;;;1.77;;
24555;SDS011;12725;49.440;10.954;2023-04-29T09:09:08;1.88;;;1.67;;
24555;SDS011;12725;49.440;10.954;2023-04-29T09:13:08;1.40;;;1.30;;
24555;SDS011;12725;49.440;10.954;2023-04-29T09:17:41;1.52;;;1.42;;
24555;SDS011;12725;49.440;10.954;2023-04-29T09:21:47;1.80;;;1.13;;
24555;SDS011;12725;49.440;10.954;2023-04-29T09:25:55;4.57;;;1.93;;
24555;SDS011;12725;49.440;10.954;2023-04-29T09:29:59;2.00;;;1.55;;
24555;SDS011;12725;49.440;10.954;2023-04-29T09:34:00;1.45;;;1.30;;
24555;SDS011;12725;49.440;10.954;2023-04-29T09:38:07;8.50;;;2.42;;
24555;SDS011;12725;49.440;10.954;2023-04-29T09:42:14;2.80;;;2.05;;
24555;SDS011;12725;49.440;10.954;2023-04-29T09:46:15;2.22;;;1.80;;
24555;SDS011;12725;49.440;10.954;2023-04-29T09:50:16;1.65;;;1.55;;
24555;SDS011;12725;49.440;10.954;2023-04-29T09:54:20;3.25;;;1.90;;
24555;SDS011;12725;49.440;10.954;2023-04-29T09:58:28;1.75;;;1.42;;
24555;SDS011;12725;49.440;10.954;2023-04-29T10:02:48;2.85;;;1.42;;
24555;SDS011;12725;49.440;10.954;2023-04-29T10:06:57;5.65;;;1.98;;
24555;SDS011;12725;49.440;10.954;2023-04-29T10:11:08;2.70;;;1.63;;
24555;SDS011;12725;49.440;10.954;2023-04-29T10:19:12;13.85;;;1.83;;
24555;SDS011;12725;49.440;10.954;2023-04-29T10:23:17;4.15;;;1.92;;
24555;SDS011;12725;49.440;10.954;2023-04-29T10:27:36;3.60;;;2.05;;
24555;SDS011;12725;49.440;10.954;2023-04-29T10:31:37;3.83;;;2.10;;
24555;SDS011;12725;49.440;10.954;2023-04-29T10:35:59;2.45;;;1.75;;
24555;SDS011;12725;49.440;10.954;2023-04-29T10:44:14;3.67;;;2.42;;
24555;SDS011;12725;49.440;10.954;2023-04-29T10:48:27;3.92;;;2.00;;
24555;SDS011;12725;49.440;10.954;2023-04-29T10:52:55;2.25;;;2.05;;
24555;SDS011;12725;49.440;10.954;2023-04-29T10:56:56;7.53;;;2.42;;
24555;SDS011;12725;49.440;10.954;2023-04-29T11:00:57;2.80;;;1.80;;
24555;SDS011;12725;49.440;10.954;2023-04-29T11:05:07;3.25;;;1.65;;
24555;SDS011;12725;49.440;10.954;2023-04-29T11:13:29;3.28;;;1.83;;
24555;SDS011;12725;49.440;10.954;2023-04-29T11:17:36;3.53;;;2.15;;
24555;SDS011;12725;49.440;10.954;2023-04-29T11:21:37;2.05;;;1.85;;
24555;SDS011;12725;49.440;10.954;2023-04-29T11:25:38;1.30;;;1.20;;
24555;SDS011;12725;49.440;10.954;2023-04-29T11:29:41;1.63;;;1.52;;
24555;SDS011;12725;49.440;10.954;2023-04-29T11:33:42;1.77;;;1.55;;
24555;SDS011;12725;49.440;10.954;2023-04-29T11:37:43;1.20;;;0.98;;
24555;SDS011;12725;49.440;10.954;2023-04-29T11:41:48;3.72;;;2.38;;
24555;SDS011;12725;49.440;10.954;2023-04-29T11:45:48;1.23;;;1.13;;
24555;SDS011;12725;49.440;10.954;2023-04-29T11:49:50;1.55;;;1.17;;
24555;SDS011;12725;49.440;10.954;2023-04-29T11:53:54;1.47;;;1.23;;
24555;SDS011;12725;49.440;10.954;2023-04-29T11:57:57;1.80;;;1.35;;
24555;SDS011;12725;49.440;10.954;2023-04-29T12:01:59;1.48;;;1.02;;
24555;SDS011;12725;49.440;10.954;2023-04-29T12:22:50;0.68;;;0.68;;
24555;SDS011;12725;49.440;10.954;2023-04-29T12:26:50;1.38;;;1.17;;
24555;SDS011;12725;49.440;10.954;2023-04-29T12:30:53;0.90;;;0.70;;
24555;SDS011;12725;49.440;10.954;2023-04-29T12:34:53;1.50;;;1.40;;
24555;SDS011;12725;49.440;10.954;2023-04-29T12:38:54;2.60;;;1.65;;
24555;SDS011;12725;49.440;10.954;2023-04-29T12:42:55;1.00;;;0.90;;
24555;SDS011;12725;49.440;10.954;2023-04-29T12:46:55;1.40;;;0.95;;
24555;SDS011;12725;49.440;10.954;2023-04-29T12:51:07;2.45;;;1.52;;
24555;SDS011;12725;49.440;10.954;2023-04-29T12:55:09;0.88;;;0.85;;
24555;SDS011;12725;49.440;10.954;2023-04-29T12:59:10;1.45;;;1.20;;
24555;SDS011;12725;49.440;10.954;2023-04-29T13:03:11;1.67;;;1.58;;
24555;SDS011;12725;49.440;10.954;2023-04-29T13:07:11;3.08;;;1.05;;
24555;SDS011;12725;49.440;10.954;2023-04-29T13:11:12;1.17;;;1.08;;
24555;SDS011;12725;49.440;10.954;2023-04-29T13:15:12;1.23;;;1.13;;
24555;SDS011;12725;49.440;10.954;2023-04-29T13:19:12;1.80;;;1.20;;
24555;SDS011;12725;49.440;10.954;2023-04-29T13:23:13;1.97;;;1.10;;
24555;SDS011;12725;49.440;10.954;2023-04-29T13:27:13;3.10;;;1.55;;
24555;SDS011;12725;49.440;10.954;2023-04-29T13:31:14;1.23;;;1.10;;
24555;SDS011;12725;49.440;10.954;2023-04-29T13:35:14;2.25;;;1.35;;
24555;SDS011;12725;49.440;10.954;2023-04-29T13:39:15;1.08;;;0.98;;
24555;SDS011;12725;49.440;10.954;2023-04-29T13:43:16;1.13;;;1.02;;
24555;SDS011;12725;49.440;10.954;2023-04-29T13:47:16;1.90;;;1.53;;
24555;SDS011;12725;49.440;10.954;2023-04-29T13:51:17;0.80;;;0.80;;
24555;SDS011;12725;49.440;10.954;2023-04-29T13:55:17;1.00;;;1.00;;
24555;SDS011;12725;49.440;10.954;2023-04-29T13:59:18;0.70;;;0.70;;
24555;SDS011;12725;49.440;10.954;2023-04-29T14:03:18;1.20;;;1.00;;
24555;SDS011;12725;49.440;10.954;2023-04-29T14:07:19;0.95;;;0.75;;
24555;SDS011;12725;49.440;10.954;2023-04-29T14:11:21;0.80;;;0.80;;
24555;SDS011;12725;49.440;10.954;2023-04-29T14:15:21;1.23;;;1.13;;
24555;SDS011;12725;49.440;10.954;2023-04-29T14:19:22;0.90;;;0.85;;
24555;SDS011;12725;49.440;10.954;2023-04-29T14:23:22;0.60;;;0.60;;
24555;SDS011;12725;49.440;10.954;2023-04-29T14:27:25;0.77;;;0.70;;
24555;SDS011;12725;49.440;10.954;2023-04-29T14:31:29;0.98;;;0.98;;
24555;SDS011;12725;49.440;10.954;2023-04-29T14:35:30;0.75;;;0.70;;
24555;SDS011;12725;49.440;10.954;2023-04-29T14:39:31;1.00;;;0.90;;
24555;SDS011;12725;49.440;10.954;2023-04-29T14:43:32;3.17;;;1.40;;
24555;SDS011;12725;49.440;10.954;2023-04-29T14:47:33;0.77;;;0.75;;
24555;SDS011;12725;49.440;10.954;2023-04-29T14:51:33;0.93;;;0.87;;
24555;SDS011;12725;49.440;10.954;2023-04-29T14:55:34;1.02;;;1.00;;
24555;SDS011;12725;49.440;10.954;2023-04-29T14:59:38;0.95;;;0.80;;
24555;SDS011;12725;49.440;10.954;2023-04-29T15:03:39;3.22;;;1.45;;
24555;SDS011;12725;49.440;10.954;2023-04-29T15:07:42;1.65;;;1.02;;
24555;SDS011;12725;49.440;10.954;2023-04-29T15:11:42;1.48;;;0.95;;
24555;SDS011;12725;49.440;10.954;2023-04-29T15:15:43;2.33;;;1.65;;
24555;SDS011;12725;49.440;10.954;2023-04-29T15:19:43;0.80;;;0.80;;
24555;SDS011;12725;49.440;10.954;2023-04-29T15:23:44;0.98;;;0.80;;
24555;SDS011;12725;49.440;10.954;2023-04-29T15:27:45;0.85;;;0.85;;
24555;SDS011;12725;49.440;10.954;2023-04-29T15:31:45;1.77;;;1.30;;
24555;SDS011;12725;49.440;10.954;2023-04-29T15:35:47;2.42;;;1.33;;
24555;SDS011;12725;49.440;10.954;2023-04-29T15:39:47;2.22;;;1.63;;
24555;SDS011;12725;49.440;10.954;2023-04-29T15:43:47;1.43;;;1.00;;
24555;SDS011;12725;49.440;10.954;2023-04-29T15:47:48;2.10;;;1.70;;
24555;SDS011;12725;49.440;10.954;2023-04-29T15:51:48;2.60;;;1.07;;
24555;SDS011;12725;49.440;10.954;2023-04-29T15:55:49;2.55;;;1.58;;
24555;SDS011;12725;49.440;10.954;2023-04-29T15:59:50;3.60;;;1.38;;
24555;SDS011;12725;49.440;10.954;2023-04-29T16:03:51;2.47;;;1.45;;
24555;SDS011;12725;49.440;10.954;2023-04-29T16:07:51;1.63;;;1.03;;
24555;SDS011;12725;49.440;10.954;2023-04-29T16:11:52;1.60;;;1.50;;
24555;SDS011;12725;49.440;10.954;2023-04-29T16:15:55;1.98;;;1.30;;
24555;SDS011;12725;49.440;10.954;2023-04-29T16:19:56;0.98;;;0.98;;
24555;SDS011;12725;49.440;10.954;2023-04-29T16:23:56;1.35;;;0.98;;
24555;SDS011;12725;49.440;10.954;2023-04-29T16:27:57;0.55;;;0.47;;
24555;SDS011;12725;49.440;10.954;2023-04-29T16:31:57;0.60;;;0.60;;
24555;SDS011;12725;49.440;10.954;2023-04-29T16:35:57;1.38;;;0.90;;
24555;SDS011;12725;49.440;10.954;2023-04-29T16:39:59;1.27;;;1.13;;
24555;SDS011;12725;49.440;10.954;2023-04-29T16:44:00;2.33;;;1.73;;
24555;SDS011;12725;49.440;10.954;2023-04-29T16:48:00;1.88;;;1.05;;
24555;SDS011;12725;49.440;10.954;2023-04-29T16:52:00;2.08;;;1.20;;
24555;SDS011;12725;49.440;10.954;2023-04-29T16:56:01;0.80;;;0.63;;
24555;SDS011;12725;49.440;10.954;2023-04-29T17:00:02;0.70;;;0.70;;
24555;SDS011;12725;49.440;10.954;2023-04-29T17:04:04;1.13;;;0.80;;
24555;SDS011;12725;49.440;10.954;2023-04-29T17:08:05;0.60;;;0.60;;
24555;SDS011;12725;49.440;10.954;2023-04-29T17:12:06;1.30;;;1.20;;
24555;SDS011;12725;49.440;10.954;2023-04-29T17:16:10;0.95;;;0.90;;
24555;SDS011;12725;49.440;10.954;2023-04-29T17:20:13;0.60;;;0.60;;
24555;SDS011;12725;49.440;10.954;2023-04-29T17:24:14;0.68;;;0.68;;
24555;SDS011;12725;49.440;10.954;2023-04-29T17:28:15;1.15;;;1.05;;
24555;SDS011;12725;49.440;10.954;2023-04-29T17:32:15;2.90;;;1.00;;
24555;SDS011;12725;49.440;10.954;2023-04-29T17:36:16;0.70;;;0.70;;
24555;SDS011;12725;49.440;10.954;2023-04-29T17:40:18;1.35;;;1.25;;
24555;SDS011;12725;49.440;10.954;2023-04-29T17:44:18;2.08;;;1.40;;
24555;SDS011;12725;49.440;10.954;2023-04-29T17:48:19;1.80;;;0.80;;
24555;SDS011;12725;49.440;10.954;2023-04-29T18:23:54;1.15;;;1.15;;
24555;SDS011;12725;49.440;10.954;2023-04-29T18:40:00;1.95;;;1.33;;
24555;SDS011;12725;49.440;10.954;2023-04-29T19:05:11;1.13;;;1.00;;
24555;SDS011;12725;49.440;10.954;2023-04-29T19:10:12;1.88;;;1.02;;
24555;SDS011;12725;49.440;10.954;2023-04-29T19:15:25;0.93;;;0.65;;
24555;SDS011;12725;49.440;10.954;2023-04-29T19:36:21;2.30;;;1.90;;
24555;SDS011;12725;49.440;10.954;2023-04-29T20:09:36;1.25;;;1.15;;
24555;SDS011;12725;49.440;10.954;2023-04-29T20:13:53;3.05;;;1.67;;
24555;SDS011;12725;49.440;10.954;2023-04-29T20:30:01;2.22;;;1.77;;
24555;SDS011;12725;49.440;10.954;2023-04-29T20:44:47;2.28;;;1.35;;
24555;SDS011;12725;49.440;10.954;2023-04-29T20:49:58;1.83;;;1.40;;
24555;SDS011;12725;49.440;10.954;2023-04-29T21:00:18;2.97;;;1.45;;
24555;SDS011;12725;49.440;10.954;2023-04-29T21:04:20;1.42;;;1.33;;
24555;SDS011;12725;49.440;10.954;2023-04-29T21:08:20;1.40;;;1.20;;
24555;SDS011;12725;49.440;10.954;2023-04-29T21:12:21;1.58;;;1.17;;
24555;SDS011;12725;49.440;10.954;2023-04-29T21:16:23;3.15;;;1.38;;
24555;SDS011;12725;49.440;10.954;2023-04-29T21:20:26;3.08;;;1.45;;
24555;SDS011;12725;49.440;10.954;2023-04-29T21:24:26;3.90;;;2.17;;
24555;SDS011;12725;49.440;10.954;2023-04-29T21:28:27;1.38;;;1.27;;
24555;SDS011;12725;49.440;10.954;2023-04-29T21:32:28;1.17;;;0.93;;
24555;SDS011;12725;49.440;10.954;2023-04-29T21:36:28;1.95;;;1.23;;
24555;SDS011;12725;49.440;10.954;2023-04-29T21:40:28;7.22;;;1.50;;
24555;SDS011;12725;49.440;10.954;2023-04-29T21:44:29;2.30;;;1.33;;
24555;SDS011;12725;49.440;10.954;2023-04-29T21:48:30;2.25;;;1.52;;
24555;SDS011;12725;49.440;10.954;2023-04-29T21:52:31;2.33;;;1.10;;
24555;SDS011;12725;49.440;10.954;2023-04-29T21:56:34;1.33;;;1.20;;
24555;SDS011;12725;49.440;10.954;2023-04-29T22:00:34;1.50;;;1.10;;
24555;SDS011;12725;49.440;10.954;2023-04-29T22:04:38;1.50;;;1.40;;
24555;SDS011;12725;49.440;10.954;2023-04-29T22:08:39;4.43;;;1.83;;
24555;SDS011;12725;49.440;10.954;2023-04-29T22:12:39;1.98;;;1.13;;
24555;SDS011;12725;49.440;10.954;2023-04-29T22:16:40;1.70;;;1.60;;
24555;SDS011;12725;49.440;10.954;2023-04-29T22:20:40;1.58;;;1.08;;
24555;SDS011;12725;49.440;10.954;2023-04-29T22:24:40;1.88;;;1.65;;
24555;SDS011;12725;49.440;10.954;2023-04-29T22:28:41;3.20;;;1.77;;
24555;SDS011;12725;49.440;10.954;2023-04-29T22:32:41;1.38;;;1.27;;
24555;SDS011;12725;49.440;10.954;2023-04-29T22:36:42;2.10;;;1.90;;
24555;SDS011;12725;49.440;10.954;2023-04-29T22:40:47;3.10;;;1.03;;
24555;SDS011;12725;49.440;10.954;2023-04-29T22:44:49;1.85;;;1.35;;
24555;SDS011;12725;49.440;10.954;2023-04-29T22:48:50;1.90;;;1.77;;
24555;SDS011;12725;49.440;10.954;2023-04-29T22:52:50;1.30;;;1.20;;
24555;SDS011;12725;49.440;10.954;2023-04-29T22:56:50;1.60;;;1.37;;
24555;SDS011;12725;49.440;10.954;2023-04-29T23:00:54;2.70;;;1.50;;
24555;SDS011;12725;49.440;10.954;2023-04-29T23:04:56;2.05;;;1.30;;
24555;SDS011;12725;49.440;10.954;2023-04-29T23:08:57;3.67;;;2.08;;
24555;SDS011;12725;49.440;10.954;2023-04-29T23:12:57;4.47;;;1.93;;
24555;SDS011;12725;49.440;10.954;2023-04-29T23:16:58;2.90;;;2.05;;
24555;SDS011;12725;49.440;10.954;2023-04-29T23:20:58;2.50;;;1.83;;
24555;SDS011;12725;49.440;10.954;2023-04-29T23:24:59;1.60;;;1.50;;
24555;SDS011;12725;49.440;10.954;2023-04-29T23:28:59;1.50;;;1.42;;
24555;SDS011;12725;49.440;10.954;2023-04-29T23:32:59;2.30;;;1.55;;
24555;SDS011;12725;49.440;10.954;2023-04-29T23:37:00;1.25;;;1.15;;
24555;SDS011;12725;49.440;10.954;2023-04-29T23:41:00;1.85;;;1.45;;
24555;SDS011;12725;49.440;10.954;2023-04-29T23:45:01;2.83;;;1.93;;
24555;SDS011;12725;49.440;10.954;2023-04-29T23:49:01;1.70;;;1.60;;
24555;SDS011;12725;49.440;10.954;2023-04-29T23:53:01;2.60;;;1.60;;
24555;SDS011;12725;49.440;10.954;2023-04-29T23:57:02;3.80;;;1.83;;
